Detall de PIREP

Printer-friendly versionPDF version

[2014/04/05 09:52:00]
Flight IATA:CT3303
Pilot Number:012
Company ICAO:CAT
Aircraft Type:B744/E
PAX:357
Departing Airport: DTTA
Destination Airport: LEZG
Alternate Airport:LEMD
Online: VATSIM
Route:TOBIB/M082F380 UA725 TANIT UR723 TABOT UM739 BALEN/N0491F370 UM601 GRAUS
Flight Level:F380
No Slew and time accel
No pause
Crash detect
Detect pilot in Cockpit between each 30 and 45 minutes
09:52 Zero fuel Weight: 502028 Lbs, Fuel Weight: 94945 Lbs
09:52 VATSIM:DTTA 050930Z 26017KT 240V300 9999 SCT023 BKN093 17/10 Q1011
09:52 VATSIM:LEZG 050930Z 31010KT 270V340 9999 FEW035 17/10 Q1019
09:52 Parking Brakes off
10:00 Take-off
10:00 Take off Weight: 594756 Lbs
10:00 Wind: 272º @ 017 Knots Heading: 291º
10:00 POS N36º 51´ 03´´ E010º 13´ 41´´
10:00 Gear Up: 187 Knots
10:00 Flaps:3 at 187 Knots
10:00 Flaps:2 at 213 Knots
10:01 Flaps:1 at 222 Knots
10:02 Flaps:0 at 225 Knots
10:15 Wind:319º@067 Knots Heading: 313º Ground Speed: 426 Knots Altitude 34996 ft
10:30 Wind:321º@063 Knots Heading: 313º Ground Speed: 425 Knots Altitude 35849 ft
10:45 Wind:316º@033 Knots Heading: 317º Ground Speed: 449 Knots Altitude 35997 ft
11:00 Wind:318º@060 Knots Heading: 282º Ground Speed: 440 Knots Altitude 37063 ft
11:15 Wind:316º@058 Knots Heading: 299º Ground Speed: 431 Knots Altitude 37053 ft
11:30 Wind:315º@025 Knots Heading: 268º Ground Speed: 322 Knots Altitude 12798 ft
11:32 Flaps:1 at 225 Knots
11:34 Flaps:2 at 200 Knots
11:35 Flaps:3 at 180 Knots
11:35 Flaps:4 at 167 Knots
11:36 Gear Down: 170 Knots
11:39 Flaps:5 at 169 Knots
11:39 Flaps:6 at 155 Knots
11:41 TouchDown:Rate -301 ft/min Speed: 141 Knots
11:41 VATSIM:LEZG 051100Z 31016KT 280V340 9999 FEW035 20/09 Q1018
11:41 Land
11:41 Wind:315º@016 Knots
11:41 Heading: 301º
11:41 Flight Duration: 01:41
11:41 Landing Weight: 555278 Lbs
11:41 POS N41º 39´ 39´´ W001º 01´ 16´´
11:44 Parking brakes on
11:44 Block to Block Duration: 01:52
11:44 Final Fuel: 52647 Lbls
11:44 Spent Fuel: 42297 Lbls
11:44 Flight Length: 653 NM
11:44 TOD Land Length: 653 NM

Exportar CSV

Powered by Drupal - Modified by Danger4k